sensor_id;sensor_type;location;lat;lon;timestamp;temperature;humidity
43541;DHT22;29549;40.386;-3.710;2023-06-22T00:02:59;20.60;72.90
43541;DHT22;29549;40.386;-3.710;2023-06-22T00:13:00;20.60;72.30
43541;DHT22;29549;40.386;-3.710;2023-06-22T00:23:00;20.40;72.40
43541;DHT22;29549;40.386;-3.710;2023-06-22T00:33:01;20.50;72.20
43541;DHT22;29549;40.386;-3.710;2023-06-22T00:43:02;20.50;71.80
43541;DHT22;29549;40.386;-3.710;2023-06-22T00:53:06;20.40;71.60
43541;DHT22;29549;40.386;-3.710;2023-06-22T01:03:10;20.40;71.60
43541;DHT22;29549;40.386;-3.710;2023-06-22T01:23:35;20.30;71.30
43541;DHT22;29549;40.386;-3.710;2023-06-22T01:33:39;20.40;72.20
43541;DHT22;29549;40.386;-3.710;2023-06-22T01:43:41;20.20;72.40
43541;DHT22;29549;40.386;-3.710;2023-06-22T01:53:41;20.20;72.30
43541;DHT22;29549;40.386;-3.710;2023-06-22T02:03:53;20.10;72.90
43541;DHT22;29549;40.386;-3.710;2023-06-22T02:13:56;20.10;72.10
43541;DHT22;29549;40.386;-3.710;2023-06-22T02:23:58;20.10;72.50
43541;DHT22;29549;40.386;-3.710;2023-06-22T02:33:59;20.20;72.50
43541;DHT22;29549;40.386;-3.710;2023-06-22T02:44:00;20.20;72.30
43541;DHT22;29549;40.386;-3.710;2023-06-22T02:54:00;20.20;71.80
43541;DHT22;29549;40.386;-3.710;2023-06-22T03:04:01;20.20;72.60
43541;DHT22;29549;40.386;-3.710;2023-06-22T03:14:02;20.00;73.70
43541;DHT22;29549;40.386;-3.710;2023-06-22T03:24:02;19.80;74.20
43541;DHT22;29549;40.386;-3.710;2023-06-22T03:34:03;19.70;73.40
43541;DHT22;29549;40.386;-3.710;2023-06-22T03:44:04;19.60;73.00
43541;DHT22;29549;40.386;-3.710;2023-06-22T03:54:04;19.50;73.20
43541;DHT22;29549;40.386;-3.710;2023-06-22T04:04:05;19.30;73.80
43541;DHT22;29549;40.386;-3.710;2023-06-22T04:14:06;19.40;73.70
43541;DHT22;29549;40.386;-3.710;2023-06-22T04:24:06;19.40;73.40
43541;DHT22;29549;40.386;-3.710;2023-06-22T04:34:07;19.30;73.50
43541;DHT22;29549;40.386;-3.710;2023-06-22T04:44:11;19.20;73.90
43541;DHT22;29549;40.386;-3.710;2023-06-22T04:54:12;19.20;74.10
43541;DHT22;29549;40.386;-3.710;2023-06-22T05:04:13;19.50;72.80
43541;DHT22;29549;40.386;-3.710;2023-06-22T05:14:14;19.50;73.00
43541;DHT22;29549;40.386;-3.710;2023-06-22T05:24:15;19.60;73.80
43541;DHT22;29549;40.386;-3.710;2023-06-22T05:34:15;19.70;73.60
43541;DHT22;29549;40.386;-3.710;2023-06-22T05:44:16;19.70;73.10
43541;DHT22;29549;40.386;-3.710;2023-06-22T05:54:16;19.80;72.80
43541;DHT22;29549;40.386;-3.710;2023-06-22T06:04:18;19.90;72.80
43541;DHT22;29549;40.386;-3.710;2023-06-22T06:14:19;19.90;72.80
43541;DHT22;29549;40.386;-3.710;2023-06-22T06:24:20;20.00;72.00
43541;DHT22;29549;40.386;-3.710;2023-06-22T06:34:21;20.10;71.70
43541;DHT22;29549;40.386;-3.710;2023-06-22T06:44:21;20.30;70.50
43541;DHT22;29549;40.386;-3.710;2023-06-22T06:54:22;20.60;69.10
43541;DHT22;29549;40.386;-3.710;2023-06-22T07:04:22;21.10;68.30
43541;DHT22;29549;40.386;-3.710;2023-06-22T07:14:23;21.70;66.60
43541;DHT22;29549;40.386;-3.710;2023-06-22T07:24:24;22.40;63.30
43541;DHT22;29549;40.386;-3.710;2023-06-22T07:34:24;22.80;62.30
43541;DHT22;29549;40.386;-3.710;2023-06-22T07:44:25;23.30;59.60
43541;DHT22;29549;40.386;-3.710;2023-06-22T07:54:26;23.60;57.90
43541;DHT22;29549;40.386;-3.710;2023-06-22T08:04:27;23.90;57.40
43541;DHT22;29549;40.386;-3.710;2023-06-22T08:14:29;24.30;56.50
43541;DHT22;29549;40.386;-3.710;2023-06-22T08:24:30;24.70;55.40
43541;DHT22;29549;40.386;-3.710;2023-06-22T08:34:31;24.80;54.20
43541;DHT22;29549;40.386;-3.710;2023-06-22T08:44:31;24.70;53.40
43541;DHT22;29549;40.386;-3.710;2023-06-22T08:54:32;25.10;52.60
43541;DHT22;29549;40.386;-3.710;2023-06-22T09:04:34;25.10;52.10
43541;DHT22;29549;40.386;-3.710;2023-06-22T09:14:35;25.30;51.40
43541;DHT22;29549;40.386;-3.710;2023-06-22T09:24:36;25.60;51.30
43541;DHT22;29549;40.386;-3.710;2023-06-22T09:34:37;25.50;51.40
43541;DHT22;29549;40.386;-3.710;2023-06-22T09:44:37;25.60;50.60
43541;DHT22;29549;40.386;-3.710;2023-06-22T09:54:38;25.80;52.60
43541;DHT22;29549;40.386;-3.710;2023-06-22T10:04:38;25.80;50.40
43541;DHT22;29549;40.386;-3.710;2023-06-22T10:14:40;26.20;49.70
43541;DHT22;29549;40.386;-3.710;2023-06-22T10:24:41;26.40;48.40
43541;DHT22;29549;40.386;-3.710;2023-06-22T10:34:44;26.00;49.20
43541;DHT22;29549;40.386;-3.710;2023-06-22T10:44:45;26.40;47.50
43541;DHT22;29549;40.386;-3.710;2023-06-22T10:54:46;26.60;48.50
43541;DHT22;29549;40.386;-3.710;2023-06-22T11:04:47;26.70;47.00
43541;DHT22;29549;40.386;-3.710;2023-06-22T11:14:48;26.90;46.10
43541;DHT22;29549;40.386;-3.710;2023-06-22T11:24:50;27.20;45.00
43541;DHT22;29549;40.386;-3.710;2023-06-22T11:34:51;27.10;43.80
43541;DHT22;29549;40.386;-3.710;2023-06-22T11:44:51;27.30;42.90
43541;DHT22;29549;40.386;-3.710;2023-06-22T11:54:52;27.30;42.20
43541;DHT22;29549;40.386;-3.710;2023-06-22T12:04:53;27.20;42.20
43541;DHT22;29549;40.386;-3.710;2023-06-22T12:14:56;27.80;40.00
43541;DHT22;29549;40.386;-3.710;2023-06-22T12:24:56;27.80;39.00
43541;DHT22;29549;40.386;-3.710;2023-06-22T12:34:57;28.00;39.00
43541;DHT22;29549;40.386;-3.710;2023-06-22T12:44:57;28.40;37.70
43541;DHT22;29549;40.386;-3.710;2023-06-22T12:54:58;28.50;37.60
43541;DHT22;29549;40.386;-3.710;2023-06-22T13:04:59;28.40;37.80
43541;DHT22;29549;40.386;-3.710;2023-06-22T13:14:59;28.60;38.50
43541;DHT22;29549;40.386;-3.710;2023-06-22T13:25:00;28.80;37.40
43541;DHT22;29549;40.386;-3.710;2023-06-22T13:35:01;28.70;36.90
43541;DHT22;29549;40.386;-3.710;2023-06-22T13:45:02;29.00;37.00
43541;DHT22;29549;40.386;-3.710;2023-06-22T13:55:02;29.10;36.00
43541;DHT22;29549;40.386;-3.710;2023-06-22T14:05:03;28.80;36.30
43541;DHT22;29549;40.386;-3.710;2023-06-22T14:15:04;28.80;36.90
43541;DHT22;29549;40.386;-3.710;2023-06-22T14:25:05;28.70;36.00
43541;DHT22;29549;40.386;-3.710;2023-06-22T14:35:05;28.70;35.60
43541;DHT22;29549;40.386;-3.710;2023-06-22T14:45:06;28.70;36.20
43541;DHT22;29549;40.386;-3.710;2023-06-22T14:55:07;29.00;35.30
43541;DHT22;29549;40.386;-3.710;2023-06-22T15:05:08;28.90;35.00
43541;DHT22;29549;40.386;-3.710;2023-06-22T15:15:09;28.80;35.10
43541;DHT22;29549;40.386;-3.710;2023-06-22T15:25:09;28.90;35.40
43541;DHT22;29549;40.386;-3.710;2023-06-22T15:35:11;29.00;35.00
43541;DHT22;29549;40.386;-3.710;2023-06-22T15:45:11;29.10;34.50
43541;DHT22;29549;40.386;-3.710;2023-06-22T15:55:12;28.90;35.00
43541;DHT22;29549;40.386;-3.710;2023-06-22T16:05:13;29.30;34.50
43541;DHT22;29549;40.386;-3.710;2023-06-22T16:15:13;29.30;34.20
43541;DHT22;29549;40.386;-3.710;2023-06-22T16:25:14;29.10;34.50
43541;DHT22;29549;40.386;-3.710;2023-06-22T16:35:15;29.20;34.80
43541;DHT22;29549;40.386;-3.710;2023-06-22T16:45:16;29.60;35.60
43541;DHT22;29549;40.386;-3.710;2023-06-22T16:55:16;29.40;34.80
43541;DHT22;29549;40.386;-3.710;2023-06-22T17:05:17;29.40;35.50
43541;DHT22;29549;40.386;-3.710;2023-06-22T17:15:18;29.50;34.50
43541;DHT22;29549;40.386;-3.710;2023-06-22T17:25:20;29.40;34.70
43541;DHT22;29549;40.386;-3.710;2023-06-22T17:35:21;29.40;34.60
43541;DHT22;29549;40.386;-3.710;2023-06-22T17:45:23;29.40;34.30
43541;DHT22;29549;40.386;-3.710;2023-06-22T17:55:24;29.20;34.80
43541;DHT22;29549;40.386;-3.710;2023-06-22T18:05:31;29.20;34.70
43541;DHT22;29549;40.386;-3.710;2023-06-22T18:15:33;29.20;34.70
43541;DHT22;29549;40.386;-3.710;2023-06-22T18:25:35;29.10;34.40
43541;DHT22;29549;40.386;-3.710;2023-06-22T18:35:37;29.00;34.60
43541;DHT22;29549;40.386;-3.710;2023-06-22T18:45:38;28.90;34.90
43541;DHT22;29549;40.386;-3.710;2023-06-22T18:55:40;28.80;35.10
43541;DHT22;29549;40.386;-3.710;2023-06-22T19:05:42;28.60;35.40
43541;DHT22;29549;40.386;-3.710;2023-06-22T19:15:43;28.50;35.70
43541;DHT22;29549;40.386;-3.710;2023-06-22T19:25:43;28.30;35.90
43541;DHT22;29549;40.386;-3.710;2023-06-22T19:35:45;28.30;36.10
43541;DHT22;29549;40.386;-3.710;2023-06-22T19:45:47;28.10;36.50
43541;DHT22;29549;40.386;-3.710;2023-06-22T19:55:48;28.00;36.90
43541;DHT22;29549;40.386;-3.710;2023-06-22T20:05:49;27.90;37.40
43541;DHT22;29549;40.386;-3.710;2023-06-22T20:15:49;27.70;38.00
43541;DHT22;29549;40.386;-3.710;2023-06-22T20:25:51;27.60;38.60
43541;DHT22;29549;40.386;-3.710;2023-06-22T20:35:54;27.50;39.20
43541;DHT22;29549;40.386;-3.710;2023-06-22T20:45:56;27.30;39.90
43541;DHT22;29549;40.386;-3.710;2023-06-22T20:55:59;27.20;40.30
43541;DHT22;29549;40.386;-3.710;2023-06-22T21:05:59;27.00;41.40
43541;DHT22;29549;40.386;-3.710;2023-06-22T21:16:00;26.90;41.20
43541;DHT22;29549;40.386;-3.710;2023-06-22T21:26:01;26.90;41.70
43541;DHT22;29549;40.386;-3.710;2023-06-22T21:36:01;26.80;41.90
43541;DHT22;29549;40.386;-3.710;2023-06-22T21:46:02;26.50;42.80
43541;DHT22;29549;40.386;-3.710;2023-06-22T21:56:02;26.50;42.70
43541;DHT22;29549;40.386;-3.710;2023-06-22T22:06:03;26.50;42.80
43541;DHT22;29549;40.386;-3.710;2023-06-22T22:16:04;26.50;42.50
43541;DHT22;29549;40.386;-3.710;2023-06-22T22:26:06;26.10;43.50
43541;DHT22;29549;40.386;-3.710;2023-06-22T22:36:06;25.80;44.90
43541;DHT22;29549;40.386;-3.710;2023-06-22T22:46:07;25.60;45.60
43541;DHT22;29549;40.386;-3.710;2023-06-22T22:56:08;25.60;46.40
43541;DHT22;29549;40.386;-3.710;2023-06-22T23:06:08;25.40;46.50
43541;DHT22;29549;40.386;-3.710;2023-06-22T23:16:09;25.10;47.30
43541;DHT22;29549;40.386;-3.710;2023-06-22T23:26:10;24.90;47.40
43541;DHT22;29549;40.386;-3.710;2023-06-22T23:36:10;24.80;47.30
43541;DHT22;29549;40.386;-3.710;2023-06-22T23:46:11;24.60;47.90
43541;DHT22;29549;40.386;-3.710;2023-06-22T23:56:11;24.50;48.30
